Time;durP1;ratioP1;P1;durP2;ratioP2;P2;SDS_P1;SDS_P2;PMS_P1;PMS_P2;Temp;Humidity;BMP_temperature;BMP_pressure;BME280_temperature;BME280_humidity;BME280_pressure;Samples;Min_cycle;Max_cycle;Signal;HPM_P1;HPM_P2
2022/06/18 05:43:19;;;;;;;169.73;159.00;;;21.40;33.10;;;;;;5016288;27;20638;-47
2022/06/18 05:45:45;;;;;;;9.60;9.20;;;23.80;26.70;;;;;;5012325;28;20481;-36
2022/06/18 05:48:11;;;;;;;13.67;13.07;;;24.50;24.70;;;;;;5011896;28;20228;-45
2022/06/18 05:50:37;;;;;;;13.30;12.80;;;25.60;22.60;;;;;;5012099;28;20324;-38
2022/06/18 13:47:11;;;;;;;9.73;9.10;;;33.30;9.50;;;;;;5066359;28;20909;-39
2022/06/18 14:29:43;;;;;;;10.20;5.70;;;26.70;36.70;;;;;;5068482;28;20634;-41
2022/06/18 14:32:48;;;;;;;53.67;48.20;;;31.80;12.60;;;;;;5068318;28;20915;-53
2022/06/18 14:35:30;;;;;;;22.10;20.60;;;28.60;15.50;;;;;;5066144;28;20187;-53
2022/06/18 14:37:56;;;;;;;8.50;8.10;;;27.60;17.80;;;;;;5066164;28;20813;-40
2022/06/18 14:40:30;;;;;;;8.90;8.20;;;26.70;18.70;;;;;;5065598;28;20511;-41
2022/06/18 14:43:42;;;;;;;8.93;8.43;;;26.20;19.90;;;;;;5064983;28;20408;-42
2022/06/18 14:46:23;;;;;;;8.90;8.40;;;25.80;20.60;;;;;;5063357;28;20405;-41
2022/06/18 14:49:14;;;;;;;9.80;9.20;;;25.50;21.70;;;;;;5065279;28;20480;-42
2022/06/18 15:11:40;;;;;;;17.27;16.27;;;26.80;24.90;;;;;;5064468;22;1337060;-62
2022/06/18 15:14:06;;;;;;;15.73;14.83;;;28.20;18.60;;;;;;5071171;28;20496;-62
2022/06/18 15:16:51;;;;;;;18.73;17.23;;;28.30;17.00;;;;;;5070891;28;20955;-75
2022/06/18 15:19:32;;;;;;;17.13;16.10;;;28.90;14.50;;;;;;5071088;28;20210;-76
2022/06/18 15:22:00;;;;;;;18.90;17.40;;;29.80;12.20;;;;;;5070859;28;20428;-74
2022/06/18 15:27:32;;;;;;;18.43;17.00;;;31.30;8.10;;;;;;5087969;28;20427;-76
2022/06/18 15:30:00;;;;;;;18.10;16.30;;;31.70;7.30;;;;;;5070210;28;20464;-72
2022/06/18 15:32:28;;;;;;;18.77;16.67;;;31.90;6.10;;;;;;5071961;28;20416;-75
2022/06/18 15:35:16;;;;;;;18.03;16.23;;;32.10;6.00;;;;;;5069516;28;20492;-75
2022/06/18 15:37:50;;;;;;;18.53;16.60;;;32.20;4.70;;;;;;5070067;28;20492;-74
2022/06/18 15:40:40;;;;;;;16.90;15.70;;;32.30;5.30;;;;;;5069946;28;20504;-76
2022/06/18 15:43:19;;;;;;;17.70;16.30;;;32.40;4.30;;;;;;5070376;28;20936;-75
2022/06/18 15:45:54;;;;;;;17.70;16.20;;;32.50;4.30;;;;;;5071830;28;20409;-75
2022/06/18 15:48:46;;;;;;;16.40;14.83;;;32.40;4.30;;;;;;5071812;28;20412;-73
2022/06/18 15:51:47;;;;;;;17.67;15.43;;;32.50;3.90;;;;;;5072227;28;20487;-73
2022/06/18 15:54:37;;;;;;;17.37;15.13;;;32.60;3.60;;;;;;5072835;28;20839;-74
2022/06/18 15:57:11;;;;;;;19.03;17.73;;;32.50;3.50;;;;;;5068989;28;20415;-73
2022/06/18 15:59:38;;;;;;;16.10;14.60;;;32.50;2.60;;;;;;5070798;28;20393;-73
2022/06/18 16:02:04;;;;;;;19.37;16.00;;;32.60;2.30;;;;;;5069897;28;20646;-73
2022/06/18 16:04:31;;;;;;;16.13;14.60;;;32.50;2.20;;;;;;5069463;28;20409;-74
2022/06/18 16:06:57;;;;;;;15.97;14.50;;;32.50;2.30;;;;;;5069602;28;20412;-74
2022/06/18 16:09:42;;;;;;;20.57;18.70;;;32.50;2.10;;;;;;5069624;28;20460;-73
2022/06/18 16:12:22;;;;;;;20.03;15.10;;;32.40;1.70;;;;;;5057520;28;20835;-74
2022/06/18 16:14:48;;;;;;;17.53;15.93;;;32.40;2.10;;;;;;5056504;28;20409;-74
2022/06/18 16:17:23;;;;;;;16.40;14.67;;;32.30;1.70;;;;;;5055643;28;20800;-74
2022/06/18 16:19:51;;;;;;;17.57;15.97;;;32.20;2.00;;;;;;5056393;28;20185;-74
2022/06/18 16:22:31;;;;;;;16.90;15.20;;;32.20;2.30;;;;;;5056493;28;20437;-74
2022/06/18 16:25:20;;;;;;;16.40;14.83;;;32.20;2.50;;;;;;5055422;28;20460;-75
2022/06/18 16:28:03;;;;;;;17.90;16.00;;;32.20;2.70;;;;;;5056159;28;20516;-75
2022/06/18 16:30:37;;;;;;;16.93;15.47;;;32.10;3.70;;;;;;5056402;28;20464;-74
2022/06/18 16:33:16;;;;;;;16.10;14.83;;;32.10;2.80;;;;;;5055627;28;20417;-74
2022/06/18 16:36:25;;;;;;;16.33;14.93;;;32.10;2.70;;;;;;5056170;28;20463;-75
2022/06/18 16:38:53;;;;;;;15.93;14.23;;;32.40;2.10;;;;;;5056446;28;20416;-75
2022/06/18 16:41:25;;;;;;;16.90;15.20;;;32.30;2.10;;;;;;5054211;28;20414;-75
2022/06/18 16:43:50;;;;;;;20.67;17.37;;;32.40;2.10;;;;;;5056117;28;20194;-75
2022/06/18 16:46:26;;;;;;;19.50;17.60;;;32.30;2.90;;;;;;5055671;28;20418;-75
2022/06/18 16:49:00;;;;;;;18.63;17.03;;;32.10;3.70;;;;;;5055105;28;20175;-76
2022/06/18 16:51:58;;;;;;;20.73;18.63;;;31.90;4.10;;;;;;5056058;28;20401;-74
2022/06/18 16:57:46;;;;;;;18.20;16.27;;;31.70;3.90;;;;;;5051664;28;20470;-75
2022/06/18 17:00:18;;;;;;;20.43;16.13;;;31.60;3.80;;;;;;5051992;28;20418;-75
2022/06/18 17:06:48;;;;;;;20.30;16.37;;;31.60;3.90;;;;;;5052785;28;20496;-75
2022/06/18 17:09:20;;;;;;;19.67;17.10;;;31.60;3.80;;;;;;5052498;28;20546;-75
2022/06/18 17:11:46;;;;;;;18.10;15.50;;;31.60;2.80;;;;;;5052041;28;20466;-75
2022/06/18 17:17:55;;;;;;;16.03;14.63;;;31.50;4.10;;;;;;5053245;28;20171;-75
2022/06/18 17:20:22;;;;;;;17.85;15.80;;;31.40;4.40;;;;;;5051508;28;20905;-75
2022/06/18 17:22:52;;;;;;;23.33;16.00;;;31.40;4.70;;;;;;5050902;28;20636;-75
2022/06/18 17:31:33;;;;;;;18.73;14.60;;;31.10;5.90;;;;;;5053212;28;20501;-75
2022/06/18 17:33:59;;;;;;;17.90;15.30;;;31.10;6.10;;;;;;5051729;28;20937;-75
2022/06/18 17:36:38;;;;;;;21.43;17.50;;;31.00;5.90;;;;;;5051139;28;20919;-75
2022/06/18 17:39:08;;;;;;;19.13;17.33;;;31.00;5.60;;;;;;5051754;28;20961;-75
2022/06/18 17:44:56;;;;;;;19.87;17.93;;;30.90;6.00;;;;;;5053141;28;20429;-75
2022/06/18 17:47:22;;;;;;;20.70;18.60;;;30.80;6.80;;;;;;5051229;28;20414;-74
2022/06/18 17:50:26;;;;;;;18.83;17.13;;;30.80;5.90;;;;;;5051568;28;20227;-75
2022/06/18 17:52:51;;;;;;;18.00;15.63;;;30.70;6.70;;;;;;5051320;28;20256;-75
2022/06/18 17:55:18;;;;;;;18.60;17.10;;;30.60;7.40;;;;;;5051560;28;20501;-76
2022/06/18 17:57:44;;;;;;;18.63;16.80;;;30.50;6.90;;;;;;5051168;28;20180;-75
2022/06/18 18:00:10;;;;;;;19.37;16.00;;;30.50;6.90;;;;;;5042980;28;20503;-75
2022/06/18 18:02:37;;;;;;;19.33;16.40;;;30.50;6.70;;;;;;5050223;28;20177;-75
2022/06/18 18:05:04;;;;;;;17.50;15.83;;;30.50;6.70;;;;;;5050798;28;20438;-76
2022/06/18 18:07:31;;;;;;;19.80;16.10;;;30.40;6.80;;;;;;5049917;28;20811;-76
2022/06/18 18:09:56;;;;;;;17.53;15.73;;;30.30;7.20;;;;;;5053940;28;20477;-76
2022/06/18 18:12:25;;;;;;;17.27;15.90;;;30.30;6.90;;;;;;5054453;28;20421;-76
2022/06/18 18:15:07;;;;;;;17.03;15.00;;;30.30;7.50;;;;;;5053589;28;20183;-75
2022/06/18 18:17:34;;;;;;;17.27;15.67;;;30.30;7.60;;;;;;5054226;28;20452;-76
2022/06/18 18:19:59;;;;;;;17.87;16.13;;;30.20;7.80;;;;;;5053692;28;20491;-76
2022/06/18 18:22:25;;;;;;;19.37;17.37;;;30.20;7.80;;;;;;5053474;28;20457;-75
2022/06/18 18:24:52;;;;;;;19.23;17.43;;;30.10;8.00;;;;;;5054286;28;20183;-76
2022/06/18 18:27:22;;;;;;;18.60;16.80;;;30.10;8.30;;;;;;5053952;28;20215;-76
2022/06/18 18:29:48;;;;;;;20.20;16.57;;;30.00;8.10;;;;;;5053317;28;20464;-76
2022/06/18 18:32:16;;;;;;;16.43;15.23;;;29.90;8.60;;;;;;5053840;28;20402;-76
2022/06/18 18:34:45;;;;;;;17.93;16.47;;;29.90;8.40;;;;;;5053431;28;20418;-75
2022/06/18 18:37:11;;;;;;;18.93;16.97;;;29.80;8.60;;;;;;5053639;28;20418;-76
2022/06/18 18:39:38;;;;;;;17.17;15.80;;;29.70;8.40;;;;;;5054725;28;20483;-76
2022/06/18 18:45:25;;;;;;;17.00;15.33;;;29.70;8.90;;;;;;5071765;28;20745;-75
2022/06/18 18:47:56;;;;;;;18.40;16.50;;;29.60;9.60;;;;;;5053944;28;20418;-76
2022/06/18 18:50:22;;;;;;;17.27;16.17;;;29.60;9.60;;;;;;5053543;28;20222;-75
2022/06/18 18:56:11;;;;;;;19.03;17.33;;;29.50;9.90;;;;;;5066253;28;20213;-77
2022/06/18 19:01:59;;;;;;;18.23;15.90;;;29.30;9.80;;;;;;5072459;28;20441;-76
2022/06/18 19:04:26;;;;;;;16.27;14.87;;;29.20;10.10;;;;;;5053145;28;20412;-75
2022/06/18 19:06:52;;;;;;;16.17;14.87;;;29.20;10.20;;;;;;5052617;28;20509;-76
2022/06/18 19:09:40;;;;;;;17.77;16.20;;;29.10;10.50;;;;;;5049488;28;20969;-77
2022/06/18 19:15:00;;;;;;;25.50;16.30;;;29.00;11.10;;;;;;5072696;28;20497;-75
2022/06/18 19:17:25;;;;;;;17.17;15.80;;;28.90;11.60;;;;;;5053637;28;20416;-76
2022/06/18 19:19:51;;;;;;;16.70;15.10;;;28.90;11.70;;;;;;5052424;28;20451;-76
2022/06/18 19:26:22;;;;;;;15.90;14.50;;;28.70;12.00;;;;;;5067961;28;20213;-77
2022/06/18 19:32:10;;;;;;;17.20;15.87;;;28.60;12.60;;;;;;5070126;28;20428;-77
2022/06/18 19:34:36;;;;;;;16.20;14.70;;;28.50;12.90;;;;;;5054249;28;20406;-77
2022/06/18 19:37:04;;;;;;;18.97;15.80;;;28.50;13.00;;;;;;5053389;28;20171;-74
2022/06/18 19:39:35;;;;;;;16.27;14.90;;;28.50;13.10;;;;;;5053167;28;20616;-76
2022/06/18 19:42:01;;;;;;;17.30;16.10;;;28.40;13.20;;;;;;5053019;28;20421;-76
2022/06/18 19:44:27;;;;;;;17.80;16.23;;;28.40;13.40;;;;;;5070866;28;20406;-74
2022/06/18 19:46:53;;;;;;;23.60;15.87;;;28.30;13.70;;;;;;5054561;28;20466;-75
2022/06/18 19:49:19;;;;;;;16.60;15.30;;;28.30;13.70;;;;;;5057818;28;20210;-75
2022/06/18 19:51:45;;;;;;;16.93;15.13;;;28.20;13.70;;;;;;5056837;28;20628;-76
2022/06/18 19:54:10;;;;;;;16.60;15.30;;;28.20;13.70;;;;;;5055930;28;20413;-77
2022/06/18 19:56:36;;;;;;;16.63;15.13;;;28.10;13.70;;;;;;5056673;28;20175;-76
2022/06/18 19:59:04;;;;;;;16.63;15.20;;;28.10;13.90;;;;;;5056684;28;20175;-76
2022/06/18 20:01:29;;;;;;;15.87;14.77;;;28.00;14.10;;;;;;5056001;28;20221;-76
2022/06/18 20:03:56;;;;;;;17.83;15.93;;;28.00;14.20;;;;;;5056385;28;20401;-76
2022/06/18 20:06:22;;;;;;;17.30;15.50;;;27.90;14.40;;;;;;5056425;28;20245;-78
2022/06/18 20:08:48;;;;;;;17.50;15.90;;;27.90;14.70;;;;;;5056031;28;20413;-77
2022/06/18 20:11:15;;;;;;;16.97;15.57;;;27.80;14.80;;;;;;5056610;28;20538;-78
2022/06/18 20:13:44;;;;;;;17.27;15.77;;;27.80;15.00;;;;;;5054516;28;20413;-78
2022/06/18 20:16:12;;;;;;;20.83;15.93;;;27.80;15.40;;;;;;5051584;28;20984;-77
2022/06/18 20:18:38;;;;;;;17.13;15.83;;;27.70;15.30;;;;;;5036716;28;20453;-77
2022/06/18 20:21:04;;;;;;;18.00;16.57;;;27.70;15.30;;;;;;5036491;28;20425;-78
2022/06/18 20:23:30;;;;;;;19.20;17.27;;;27.60;15.50;;;;;;5036591;28;20422;-77
2022/06/18 20:25:55;;;;;;;18.60;17.20;;;27.60;15.90;;;;;;5035846;28;20410;-77
2022/06/18 20:28:21;;;;;;;18.70;16.90;;;27.60;15.70;;;;;;5035822;28;20892;-76
2022/06/18 20:30:47;;;;;;;20.07;18.10;;;27.60;15.40;;;;;;5035983;28;20200;-77
2022/06/18 20:33:13;;;;;;;17.77;16.40;;;27.50;15.70;;;;;;5035570;28;20188;-77
2022/06/18 20:35:46;;;;;;;18.83;17.00;;;27.50;16.10;;;;;;5036271;28;20545;-76
2022/06/18 20:38:13;;;;;;;18.60;16.67;;;27.40;16.20;;;;;;5035964;28;20922;-77
2022/06/18 20:40:57;;;;;;;17.63;15.53;;;27.40;16.30;;;;;;5035573;28;20418;-78
2022/06/18 20:43:50;;;;;;;17.10;15.50;;;27.30;16.20;;;;;;5036216;28;20589;-77
2022/06/18 20:46:28;;;;;;;19.03;17.43;;;27.30;16.40;;;;;;5034659;28;20418;-76
2022/06/18 20:48:57;;;;;;;18.10;16.30;;;27.30;16.70;;;;;;5036141;28;20448;-76
2022/06/18 20:51:23;;;;;;;16.50;15.10;;;27.20;16.80;;;;;;5036286;28;20414;-75
2022/06/18 20:53:49;;;;;;;17.57;15.97;;;27.20;17.00;;;;;;5035551;28;20483;-78
2022/06/18 20:59:00;;;;;;;17.30;15.80;;;27.10;17.50;;;;;;5053172;28;20811;-78
2022/06/18 21:01:26;;;;;;;16.77;15.40;;;27.10;17.50;;;;;;5035047;28;20407;-78
2022/06/18 21:03:53;;;;;;;17.93;16.30;;;27.00;17.50;;;;;;5043142;28;20214;-78
2022/06/18 21:06:23;;;;;;;17.70;16.07;;;27.00;17.50;;;;;;5056586;28;20248;-78
2022/06/18 21:08:50;;;;;;;17.73;16.10;;;27.00;17.60;;;;;;5062749;22;20501;-76
2022/06/18 21:11:19;;;;;;;18.43;16.83;;;26.90;18.00;;;;;;4998800;28;20487;-77
2022/06/18 21:14:00;;;;;;;17.33;15.87;;;26.80;18.10;;;;;;4996604;28;20415;-76
2022/06/18 21:16:37;;;;;;;18.10;16.33;;;26.80;18.30;;;;;;4996206;28;21023;-77
2022/06/18 21:19:03;;;;;;;18.53;16.90;;;26.70;18.40;;;;;;4995543;28;20408;-77
2022/06/18 21:21:30;;;;;;;19.57;17.10;;;26.70;18.70;;;;;;4995901;28;20420;-77
2022/06/18 21:23:55;;;;;;;18.00;16.60;;;26.70;18.80;;;;;;4995599;28;20939;-77
2022/06/18 21:26:22;;;;;;;17.37;16.00;;;26.60;18.80;;;;;;4996358;28;20416;-76
2022/06/18 21:28:48;;;;;;;18.30;16.73;;;26.60;19.10;;;;;;4996433;28;20315;-77
2022/06/18 21:37:01;;;;;;;18.63;16.83;;;26.50;19.50;;;;;;5014054;28;20431;-77
2022/06/18 21:39:35;;;;;;;18.90;17.23;;;26.40;19.50;;;;;;4996631;28;20416;-77
2022/06/18 21:42:04;;;;;;;17.40;15.60;;;26.40;19.80;;;;;;4997267;28;20482;-76
2022/06/18 21:44:31;;;;;;;17.57;15.83;;;26.40;19.40;;;;;;4996410;28;20416;-77
2022/06/18 21:46:57;;;;;;;16.87;15.63;;;26.40;19.20;;;;;;4995805;28;20425;-76
2022/06/18 21:49:27;;;;;;;16.37;14.90;;;26.50;19.20;;;;;;4996288;28;20471;-76
2022/06/18 21:51:58;;;;;;;17.00;15.70;;;26.50;19.40;;;;;;4996477;28;20412;-76
2022/06/18 21:54:25;;;;;;;16.87;15.20;;;26.50;19.10;;;;;;4995733;28;20412;-76
2022/06/18 21:56:54;;;;;;;17.40;15.70;;;26.40;19.20;;;;;;4995556;28;20451;-76
2022/06/18 21:59:22;;;;;;;15.80;14.70;;;26.40;19.20;;;;;;4995498;28;20448;-76
2022/06/18 22:01:49;;;;;;;16.73;15.60;;;26.40;19.30;;;;;;4995614;28;20452;-76
2022/06/18 22:04:19;;;;;;;16.30;14.60;;;26.30;19.40;;;;;;4995483;28;20419;-76
2022/06/18 22:06:46;;;;;;;16.80;15.17;;;26.30;19.50;;;;;;4995389;28;20420;-76
2022/06/18 22:09:11;;;;;;;16.50;14.90;;;26.20;20.00;;;;;;4994655;28;20807;-76
2022/06/18 22:11:38;;;;;;;18.30;16.30;;;26.20;20.20;;;;;;4995666;28;20427;-76
2022/06/18 22:19:32;;;;;;;17.17;15.40;;;26.00;20.40;;;;;;5013276;28;20414;-77
2022/06/18 22:21:58;;;;;;;17.07;15.60;;;25.90;20.50;;;;;;4995283;28;20412;-76
2022/06/18 22:24:26;;;;;;;17.70;16.20;;;25.90;20.60;;;;;;4995543;28;20451;-76
2022/06/18 22:26:52;;;;;;;17.07;15.60;;;25.90;20.40;;;;;;4995248;28;20177;-76
2022/06/18 22:29:18;;;;;;;16.60;15.20;;;25.90;20.50;;;;;;4994613;28;20949;-77
2022/06/18 22:31:45;;;;;;;22.47;16.63;;;25.90;20.50;;;;;;4995759;28;20208;-76
2022/06/18 22:34:11;;;;;;;17.80;15.37;;;25.80;20.40;;;;;;4995296;28;20943;-77
2022/06/18 22:36:37;;;;;;;17.97;16.20;;;25.80;20.60;;;;;;4995186;28;20849;-76
2022/06/18 22:39:03;;;;;;;17.80;15.87;;;25.70;21.10;;;;;;4995247;28;20464;-76
2022/06/18 22:41:35;;;;;;;17.43;16.13;;;25.70;20.30;;;;;;4995186;28;20553;-77
2022/06/18 22:44:03;;;;;;;17.07;15.30;;;25.60;20.00;;;;;;4995379;28;20419;-77
2022/06/18 22:46:33;;;;;;;17.23;15.37;;;25.60;19.80;;;;;;4994962;28;20424;-75
2022/06/18 22:49:39;;;;;;;18.05;15.70;;;25.60;19.80;;;;;;4994965;28;20420;-76
2022/06/18 22:52:06;;;;;;;16.57;15.27;;;25.70;19.40;;;;;;4994985;28;20523;-76
2022/06/18 22:54:39;;;;;;;14.80;13.93;;;25.60;19.50;;;;;;4994743;28;20416;-76
2022/06/18 22:57:05;;;;;;;17.60;15.80;;;25.60;19.20;;;;;;4994796;28;20408;-76
2022/06/18 22:59:31;;;;;;;17.60;15.87;;;25.70;19.40;;;;;;4995002;28;20416;-76
2022/06/18 23:01:57;;;;;;;15.07;14.07;;;25.70;19.50;;;;;;4994751;28;20507;-76
2022/06/18 23:04:23;;;;;;;16.03;14.83;;;25.70;19.70;;;;;;4994940;28;20440;-77
2022/06/18 23:06:53;;;;;;;15.60;14.10;;;25.60;20.00;;;;;;5012247;28;20431;-77
2022/06/18 23:09:31;;;;;;;16.10;15.00;;;25.60;20.10;;;;;;4994759;28;20482;-77
2022/06/18 23:22:36;;;;;;;16.83;15.33;;;25.40;21.00;;;;;;4973755;28;20400;-77
2022/06/18 23:25:03;;;;;;;18.83;16.63;;;25.40;21.20;;;;;;4987664;28;20810;-77
2022/06/18 23:34:37;;;;;;;16.60;15.17;;;25.20;22.20;;;;;;5016183;28;20407;-77
2022/06/18 23:37:42;;;;;;;16.40;15.10;;;25.10;22.00;;;;;;4997888;28;20951;-76
2022/06/18 23:40:18;;;;;;;17.40;16.00;;;25.10;22.20;;;;;;4998197;28;20434;-77
2022/06/18 23:42:44;;;;;;;16.07;14.80;;;25.10;22.30;;;;;;4998115;28;20416;-76
2022/06/18 23:45:12;;;;;;;17.13;15.83;;;24.90;22.50;;;;;;4998296;28;20430;-77
2022/06/18 23:48:21;;;;;;;16.13;14.90;;;24.90;22.60;;;;;;5015451;28;20478;-77
2022/06/18 23:54:09;;;;;;;16.50;15.00;;;24.80;22.70;;;;;;5015595;28;20391;-76
2022/06/18 23:56:36;;;;;;;18.03;16.33;;;24.70;22.90;;;;;;4997749;28;20420;-77
2022/06/18 23:59:02;;;;;;;17.00;15.60;;;24.60;22.80;;;;;;4998001;28;20177;-77
